Startpagina
METAR-TAF:

METAR-TAF

Vliegvelden :

Nampula, Mozambique

breedte: 15-06S, lengte: 039-17E, hoogte: 438 m

Actueel weer

Dit bericht is 42 minuten geleden gemaakt, om 21:00 UTC
Wind 6 kt uit het westzuidwesten
Temperatuur 18°C
Vochtigheid 94%
Druk 1021 hPa
Zicht 10 km of meer
Weinig wolken op 1000 ft
Gebroken wolken op 2000 ft

METAR: FQNP 202100Z 25006KT 9999 FEW010 BKN020 18/17 Q1021

Tijdstip: 23:42 (21:42 UTC)

Verwachting

Dit bericht is 5 uur en het 42 minuten geleden gemaakt, om 16:00 UTC
Verwachting geldig van 20 om 18 UTC tot 21 om 24 UTC
Wind 10 kt uit het zuiden met uitschieters tot 20 kt
Zicht 10 km of meer
Verspreide wolken op 2000 ft
Wijzigt naar
van 20 om 18 UTC tot 20 om 20 UTC
Wind 10 kt uit het westzuidwesten
Wijzigt naar
van 21 om 10 UTC tot 21 om 12 UTC
Wind 12 kt uit het zuiden
Wijzigt naar
van 21 om 18 UTC tot 21 om 20 UTC
Wind 10 kt uit het zuidwesten

TAF: FQNP 201600Z 2018/2124 19010G20KT 9999 SCT020 TX24/2113Z TN17/2103Z BECMG 2018/2020 24010KT BECMG 2110/2112 17012KT BECMG 2118/2120 23010KT

Waarnemingen en weersverwachtingen van meer dan 4000 vliegvelden (METAR en TAF).

De beschikbare stations zijn de gele en rode punten op de kaart.

Ga met uw muis naar het station om de naam te zien.

Klik dan om waarnemingen en weersverwachtingen te zien.

kaart wijzigen: klik op de groene knoppen met een zwart kruis om in te zoomen, op de groene knop met een streepje om uit te zoomen of op de groene pijlen voor aangrenzende kaarten.


METAR-TAF: